Tolna, North Dakota
Current Conditions -  °F | °C
As of 9:55 AM on Sunday 23 Nov 2014 (Local Time) from KDVL Reporting Station
Overcast Overcast  
Wind Chill: 22°   Ceiling: 2100
Heat Index: 34°   Visibility: 10mi
Dew Point: 21°   Wind: 22mph
Humidity: 60%   Direction: 290°WNW
Pressure: 29.38"   Gusts: 26mph
Location:  47.83°N, 98.44°W
Report Text: KDVL 231555Z AUTO 29019G23KT 10SM BKN021 OVC028 01/M06 A2938 RMK AO1
Loading
Personal Weather Stations






























Interactive Weather Map New forecast layout! Learn more

10-Day Weather Forecast

Advertisements
Track Severe Weather on mobile